Weather History for Glendive, MT

Change the Weather History Date:

Monday, November 12, 2012

  Actual Average Record
Temperature  
Mean Temperature 11 °F -  
Max Temperature 24 °F 40 °F 77 °F (1999)
Min Temperature -2 °F 19 °F -14 °F (2000)
Degree Days  
Heating Degree Days 54    
Moisture  
Dew Point 8 °F    
Average Humidity 80    
Maximum Humidity 100    
Minimum Humidity 60    
Precipitation  
Precipitation 0.00 in - - ()
Sea Level Pressure  
Sea Level Pressure 30.08 in    
Wind  
Wind Speed 6 mph (South)    
Max Wind Speed 13 mph    
Max Gust Speed -    
Visibility 10 miles    
Events      
Averages and records for this station are not official NWS values.
T = Trace of Precipitation, MM = Missing Value Source: NWS Daily Summary

Daily Weather History Graph

Daily Weather History Graph

Search for Another Location

Airport:

Trip Planner

Search our weather history database for the weather conditions in past years. The results will help you decide how hot, cold, wet, or windy it might be!

Date:

Astronomy

Nov. 12, 2012 Rise Set
Actual Time 6:59 AM MST 4:26 PM MST
Civil Twilight 6:26 AM MST 4:59 PM MST
Nautical Twilight 5:49 AM MST 5:36 PM MST
Astronomical Twilight 5:13 AM MST 6:12 PM MST
Moon 5:24 AM MST (11/12) 3:35 PM MST (11/12)
Length of Visible Light 10h 33m
Length of Day
9h 27m
Waning Crescent, 2% of the Moon is Illuminated
Nov 12
Waning Crescent
Nov 13
New
Nov 20
First Quarter
Nov 28
Full
Dec 6
Last Quarter

Hourly Weather History & Observations

Time (MST) Temp. Windchill Dew Point Humidity Pressure Visibility Wind Dir Wind Speed Gust Speed Precip Events Conditions
12:35 AM -2.2 °F - -7.6 °F 78% 30.06 in 10.0 mi Calm Calm - N/A   Clear
12:55 AM -0.4 °F -8.3 °F -5.8 °F 78% 30.06 in 10.0 mi SSW 3.5 mph - N/A   Clear
1:15 AM -0.4 °F -10.4 °F -5.8 °F 78% 30.06 in 10.0 mi SW 4.6 mph - N/A   Clear
1:35 AM -0.4 °F -10.4 °F -5.8 °F 78% 30.06 in 10.0 mi SW 4.6 mph - N/A   Clear
2:15 AM -0.4 °F -13.4 °F -4.0 °F 85% 30.07 in 10.0 mi SW 6.9 mph - N/A   Clear
2:35 AM -2.2 °F -14.2 °F -11.2 °F 66% 30.07 in 10.0 mi SW 5.8 mph - N/A   Clear
2:55 AM -2.2 °F -18.0 °F -7.6 °F 78% 30.07 in 10.0 mi SW 9.2 mph - N/A   Clear
3:15 AM -2.2 °F -18.0 °F -2.2 °F 100% 30.07 in 10.0 mi SW 9.2 mph - N/A   Clear
3:35 AM -0.4 °F -14.7 °F -4.0 °F 85% 30.07 in 10.0 mi SSW 8.1 mph - N/A   Clear
3:55 AM -2.2 °F -15.6 °F -9.4 °F 71% 30.07 in 10.0 mi South 6.9 mph - N/A   Clear
4:15 AM -2.2 °F -15.6 °F -7.6 °F 78% 30.07 in 10.0 mi SSW 6.9 mph - N/A   Clear
4:35 AM -2.2 °F -14.2 °F -2.2 °F 100% 30.08 in 10.0 mi SSW 5.8 mph - N/A   Clear
4:55 AM -0.4 °F -13.4 °F -11.2 °F 60% 30.08 in 10.0 mi SSW 6.9 mph - N/A   Clear
5:15 AM -0.4 °F -14.7 °F -4.0 °F 85% 30.08 in 10.0 mi South 8.1 mph - N/A   Clear
5:35 AM -0.4 °F -14.7 °F -7.6 °F 72% 30.07 in 10.0 mi SSW 8.1 mph - N/A   Clear
5:55 AM -2.2 °F -15.6 °F -9.4 °F 71% 30.08 in 10.0 mi South 6.9 mph - N/A   Clear
6:15 AM -2.2 °F -14.2 °F -2.2 °F 100% 30.08 in 10.0 mi SSW 5.8 mph - N/A   Clear
6:55 AM -0.4 °F -13.4 °F -5.8 °F 78% 30.08 in 10.0 mi South 6.9 mph - N/A   Mostly Cloudy
7:15 AM -0.4 °F -16.7 °F -4.0 °F 85% 30.08 in 10.0 mi South 10.4 mph - N/A   Scattered Clouds
7:55 AM -0.4 °F -14.7 °F -2.2 °F 92% 30.09 in 10.0 mi SSE 8.1 mph - N/A   Clear
8:15 AM 1.4 °F -9.9 °F -4.0 °F 78% 30.10 in 10.0 mi South 5.8 mph - N/A   Clear
8:35 AM 1.4 °F -8.3 °F -4.0 °F 78% 30.10 in 10.0 mi South 4.6 mph - N/A   Clear
8:55 AM 3.2 °F -9.1 °F 1.4 °F 92% 30.11 in 10.0 mi South 6.9 mph - N/A   Clear
9:15 AM 6.8 °F -4.8 °F 3.2 °F 85% 30.11 in 10.0 mi South 6.9 mph - N/A   Clear
9:35 AM 8.6 °F -3.7 °F 5.0 °F 85% 30.11 in 10.0 mi South 8.1 mph - N/A   Clear
9:55 AM 10.4 °F -4.1 °F 6.8 °F 85% 30.10 in 10.0 mi South 11.5 mph - N/A   Clear
10:15 AM 12.2 °F 0.7 °F 6.8 °F 79% 30.10 in 10.0 mi SSE 8.1 mph - N/A   Clear
10:35 AM 12.2 °F 1.7 °F 6.8 °F 79% 30.10 in 10.0 mi SSE 6.9 mph - N/A   Mostly Cloudy
10:55 AM 15.8 °F 5.1 °F 10.4 °F 79% 30.10 in 10.0 mi SSE 8.1 mph - N/A   Scattered Clouds
11:15 AM 17.6 °F 5.7 °F 12.2 °F 79% 30.09 in 10.0 mi SSE 10.4 mph - N/A   Clear
11:55 AM 19.4 °F 8.6 °F 14.0 °F 80% 30.09 in 10.0 mi South 9.2 mph - N/A   Clear
12:15 PM 21.2 °F 11.7 °F 15.8 °F 80% 30.09 in 10.0 mi South 8.1 mph - N/A   Clear
12:35 PM 23.0 °F 13.9 °F 14.0 °F 68% 30.08 in 10.0 mi South 8.1 mph - N/A   Clear
12:55 PM 24.8 °F 16.1 °F 15.8 °F 69% 30.08 in 10.0 mi SSW 8.1 mph - N/A   Clear
1:15 PM 24.8 °F 14.6 °F 15.8 °F 69% 30.08 in 10.0 mi South 10.4 mph - N/A   Clear
1:35 PM 24.8 °F 15.3 °F 15.8 °F 69% 30.08 in 10.0 mi South 9.2 mph - N/A   Clear
1:56 PM 24.8 °F 14.0 °F 17.6 °F 74% 30.08 in 10.0 mi South 11.5 mph - N/A   Clear
2:15 PM 23.0 °F 12.4 °F 15.8 °F 74% 30.08 in 10.0 mi South 10.4 mph - N/A   Clear
2:35 PM 24.8 °F 13.4 °F 15.8 °F 69% 30.07 in 10.0 mi SSW 12.7 mph - N/A   Clear
2:55 PM 24.8 °F 16.1 °F 17.6 °F 74% 30.08 in 10.0 mi SSW 8.1 mph - N/A   Clear
3:15 PM 21.2 °F 10.1 °F 15.8 °F 80% 30.08 in 10.0 mi SSW 10.4 mph - N/A   Clear
3:35 PM 23.0 °F 12.4 °F 14.0 °F 68% 30.09 in 10.0 mi WSW 10.4 mph - N/A   Clear
3:55 PM 24.8 °F 14.6 °F 15.8 °F 69% 30.08 in 10.0 mi WSW 10.4 mph - N/A   Clear
4:15 PM 24.8 °F 16.9 °F 15.8 °F 69% 30.08 in 10.0 mi SW 6.9 mph - N/A   Clear
4:35 PM 23.0 °F 14.7 °F 15.8 °F 74% 30.08 in 10.0 mi SW 6.9 mph - N/A   Clear
4:55 PM 21.2 °F 9.5 °F 15.8 °F 80% 30.07 in 10.0 mi WSW 11.5 mph - N/A   Clear
5:15 PM 23.0 °F 13.1 °F 15.8 °F 74% 30.06 in 10.0 mi WSW 9.2 mph - N/A   Clear
5:35 PM 19.4 °F 10.4 °F 12.2 °F 74% 30.07 in 10.0 mi South 6.9 mph - N/A   Clear
6:15 PM 19.4 °F 10.4 °F 14.0 °F 80% 30.07 in 10.0 mi SSW 6.9 mph - N/A   Clear
6:35 PM 19.4 °F 9.5 °F 12.2 °F 74% 30.08 in 10.0 mi South 8.1 mph - N/A   Clear
6:56 PM 21.2 °F 10.1 °F 17.6 °F 86% 30.07 in 10.0 mi SSW 10.4 mph - N/A   Clear
7:15 PM 21.2 °F - 15.8 °F 80% 30.08 in 10.0 mi Calm Calm - N/A   Clear
7:35 PM 19.4 °F 10.4 °F 15.8 °F 86% 30.08 in 10.0 mi South 6.9 mph - N/A   Clear
7:55 PM 19.4 °F 12.8 °F 15.8 °F 86% 30.08 in 10.0 mi South 4.6 mph - N/A   Partly Cloudy
8:15 PM 21.2 °F 14.9 °F 19.4 °F 93% 30.08 in 10.0 mi South 4.6 mph - N/A   Mostly Cloudy
8:35 PM 23.0 °F 18.4 °F 19.4 °F 86% 30.08 in 10.0 mi SSE 3.5 mph - N/A   Mostly Cloudy
8:55 PM 21.2 °F 16.4 °F 17.6 °F 86% 30.08 in 10.0 mi SSE 3.5 mph - N/A   Overcast
9:15 PM 21.2 °F 13.6 °F 17.6 °F 86% 30.08 in 10.0 mi South 5.8 mph - N/A   Overcast
9:35 PM 21.2 °F 14.9 °F 15.8 °F 80% 30.08 in 10.0 mi South 4.6 mph - N/A   Overcast
9:55 PM 21.2 °F 14.9 °F 15.8 °F 80% 30.08 in 10.0 mi South 4.6 mph - N/A   Overcast
10:15 PM 21.2 °F 12.6 °F 17.6 °F 86% 30.08 in 10.0 mi South 6.9 mph - N/A   Overcast
10:35 PM 21.2 °F 11.7 °F 17.6 °F 86% 30.08 in 10.0 mi South 8.1 mph - N/A   Mostly Cloudy
10:55 PM 21.2 °F 11.7 °F 17.6 °F 86% 30.08 in 10.0 mi South 8.1 mph - N/A   Mostly Cloudy
11:15 PM 21.2 °F 13.6 °F 17.6 °F 86% 30.07 in 10.0 mi South 5.8 mph - N/A   Overcast
11:35 PM 21.2 °F 12.6 °F 17.6 °F 86% 30.08 in 10.0 mi SSE 6.9 mph - N/A   Overcast
11:55 PM 21.2 °F 12.6 °F 17.6 °F 86% 30.08 in 10.0 mi South 6.9 mph - N/A   Overcast